Lynchburg Regional Preston Glenn Field Lynchburg US
ICAO: KLYH
IATA: LYH
Category: Medium
Scheduled Services: Yes

Elevation: 938 ft
TransAlt. 18000 ft.

Airport Communications:
ROANOKE APP/DEP:125.47
ATIS:119.8
CTAF:127.65
GND:121.9
LEESBURG RDO:109.2
TWR:127.65
UNICOM:122.95

KLYH Zoom In..

Runways:

(A) RW 04 length 7100 ft width 150 ft
ILS 110.10 / hdg 36

(B) RW 17 length 3386 ft width 75 ft
---- / hdg 170

(C) RW 22 length 7100 ft width 150 ft
---- / hdg 216

(D) RW 35 length 3386 ft width 75 ft
---- / hdg 350

Location; KLYH
Day. 11 / Time. 19.54 Zulu
* Altimeter: 29.81
* Temperature: 33° c. 91.4°f.
* Wind from: 270° Speed 09 kn with Gusts up to 14 kn.
Dewpoint: 16° c.
Visibility: 10 Statute Miles.
Clouds: Scattered 6500 ft.

KLYH 111954Z 27009G14KT 10SM SCT065 33/16 A2981 RMK AO2 SLP081 T03280156

Going to: --> -->


Wind From 270°
Speed 09 kn.

 
 
jpsmedia worldairports.se 2020   terms of use